Time;durP1;ratioP1;P1;durP2;ratioP2;P2;SDS_P1;SDS_P2;PMS_P1;PMS_P2;Temp;Humidity;BMP_temperature;BMP_pressure;BME280_temperature;BME280_humidity;BME280_pressure;Samples;Min_cycle;Max_cycle;Signal;HPM_P1;HPM_P2
2019/10/31 00:01:09;;;;;;;9.6;8.6;;;;;;;;;;;;;
2019/10/31 00:03:34;;;;;;;9.7;8.7;;;;;;;;;;;;;
2019/10/31 00:05:59;;;;;;;9.5;8.6;;;;;;;;;;;;;
2019/10/31 00:08:33;;;;;;;8.6;7.8;;;;;;;;;;;;;
2019/10/31 00:10:53;;;;;;;9.5;8.6;;;;;;;;;;;;;
2019/10/31 00:13:19;;;;;;;10.5;9.4;;;;;;;;;;;;;
2019/10/31 00:15:46;;;;;;;9.2;8.3;;;;;;;;;;;;;
2019/10/31 00:18:12;;;;;;;8.7;7.8;;;;;;;;;;;;;
2019/10/31 00:20:38;;;;;;;9.7;8.7;;;;;;;;;;;;;
2019/10/31 00:23:00;;;;;;;9.5;8.6;;;;;;;;;;;;;
2019/10/31 00:25:28;;;;;;;10.1;9.1;;;;;;;;;;;;;
2019/10/31 00:27:51;;;;;;;10.5;9.4;;;;;;;;;;;;;
2019/10/31 00:30:16;;;;;;;10.2;9.2;;;;;;;;;;;;;
2019/10/31 00:32:43;;;;;;;9.8;8.8;;;;;;;;;;;;;
2019/10/31 00:35:06;;;;;;;9.4;8.5;;;;;;;;;;;;;
2019/10/31 00:37:36;;;;;;;10.3;9.2;;;;;;;;;;;;;
2019/10/31 00:39:59;;;;;;;10.4;9.3;;;;;;;;;;;;;
2019/10/31 00:42:28;;;;;;;9.9;8.9;;;;;;;;;;;;;
2019/10/31 00:44:51;;;;;;;11;9.6;;;;;;;;;;;;;
2019/10/31 00:47:17;;;;;;;10.8;9.5;;;;;;;;;;;;;
2019/10/31 00:49:41;;;;;;;10.3;9.3;;;;;;;;;;;;;
2019/10/31 00:52:07;;;;;;;10.1;9.1;;;;;;;;;;;;;
2019/10/31 00:54:34;;;;;;;10.5;9.3;;;;;;;;;;;;;
2019/10/31 00:57:00;;;;;;;10.4;9.3;;;;;;;;;;;;;
2019/10/31 00:59:25;;;;;;;10.5;9.4;;;;;;;;;;;;;
2019/10/31 01:01:53;;;;;;;9.1;8.2;;;;;;;;;;;;;
2019/10/31 01:04:17;;;;;;;9.9;8.4;;;;;;;;;;;;;
2019/10/31 01:06:41;;;;;;;9.1;8.2;;;;;;;;;;;;;
2019/10/31 01:09:07;;;;;;;9.3;8.3;;;;;;;;;;;;;
2019/10/31 01:11:36;;;;;;;9.4;8.4;;;;;;;;;;;;;
2019/10/31 01:13:58;;;;;;;9.3;8.3;;;;;;;;;;;;;
2019/10/31 01:16:24;;;;;;;9.1;8.2;;;;;;;;;;;;;
2019/10/31 01:18:52;;;;;;;8.8;7.9;;;;;;;;;;;;;
2019/10/31 01:21:19;;;;;;;9.6;8.6;;;;;;;;;;;;;
2019/10/31 01:23:42;;;;;;;10.3;9.2;;;;;;;;;;;;;
2019/10/31 01:26:07;;;;;;;9.9;8.9;;;;;;;;;;;;;
2019/10/31 01:28:35;;;;;;;9;8.1;;;;;;;;;;;;;
2019/10/31 01:30:59;;;;;;;10;8.9;;;;;;;;;;;;;
2019/10/31 01:33:23;;;;;;;9.9;8.9;;;;;;;;;;;;;
2019/10/31 01:35:48;;;;;;;8.8;7.9;;;;;;;;;;;;;
2019/10/31 01:38:15;;;;;;;8;7.2;;;;;;;;;;;;;
2019/10/31 01:40:45;;;;;;;8.1;7.3;;;;;;;;;;;;;
2019/10/31 01:43:10;;;;;;;8.8;8;;;;;;;;;;;;;
2019/10/31 01:45:41;;;;;;;8.2;7.4;;;;;;;;;;;;;
2019/10/31 01:48:05;;;;;;;8.6;7.7;;;;;;;;;;;;;
2019/10/31 01:50:28;;;;;;;7.6;6.8;;;;;;;;;;;;;
2019/10/31 01:53:27;;;;;;;8;7.2;;;;;;;;;;;;;
2019/10/31 01:55:24;;;;;;;8.1;7.3;;;;;;;;;;;;;
2019/10/31 01:58:22;;;;;;;8.5;6.9;;;;;;;;;;;;;
2019/10/31 02:00:22;;;;;;;7.4;6.7;;;;;;;;;;;;;
2019/10/31 02:02:37;;;;;;;8;7.2;;;;;;;;;;;;;
2019/10/31 02:05:03;;;;;;;7.8;7;;;;;;;;;;;;;
2019/10/31 02:07:26;;;;;;;8.7;7.1;;;;;;;;;;;;;
2019/10/31 02:10:01;;;;;;;7.6;6.8;;;;;;;;;;;;;
2019/10/31 02:12:31;;;;;;;8.2;7.3;;;;;;;;;;;;;
2019/10/31 02:14:56;;;;;;;7.8;7;;;;;;;;;;;;;
2019/10/31 02:17:21;;;;;;;9.6;7.9;;;;;;;;;;;;;
2019/10/31 02:19:47;;;;;;;8.2;7.4;;;;;;;;;;;;;
2019/10/31 02:22:29;;;;;;;8.6;7.5;;;;;;;;;;;;;
2019/10/31 02:24:52;;;;;;;8.2;7.4;;;;;;;;;;;;;
2019/10/31 02:27:17;;;;;;;7.7;6.9;;;;;;;;;;;;;
2019/10/31 02:29:43;;;;;;;7.4;6.6;;;;;;;;;;;;;
2019/10/31 02:32:07;;;;;;;6.9;6.2;;;;;;;;;;;;;
2019/10/31 02:34:49;;;;;;;7;6.3;;;;;;;;;;;;;
2019/10/31 02:37:13;;;;;;;6.7;6;;;;;;;;;;;;;
2019/10/31 02:39:38;;;;;;;6.9;5.9;;;;;;;;;;;;;
2019/10/31 02:42:06;;;;;;;5.8;5.2;;;;;;;;;;;;;
2019/10/31 02:44:29;;;;;;;5.4;4.9;;;;;;;;;;;;;
2019/10/31 02:46:55;;;;;;;6.3;5.7;;;;;;;;;;;;;
2019/10/31 02:49:19;;;;;;;5.4;4.9;;;;;;;;;;;;;
2019/10/31 02:51:44;;;;;;;5.9;4.8;;;;;;;;;;;;;
2019/10/31 02:54:11;;;;;;;5.4;4.9;;;;;;;;;;;;;
2019/10/31 02:56:38;;;;;;;5.2;4.7;;;;;;;;;;;;;
2019/10/31 02:59:00;;;;;;;5;4.1;;;;;;;;;;;;;
2019/10/31 03:01:25;;;;;;;5.8;5.2;;;;;;;;;;;;;
2019/10/31 03:03:49;;;;;;;5.4;4.8;;;;;;;;;;;;;
2019/10/31 03:06:17;;;;;;;5.1;4.2;;;;;;;;;;;;;
2019/10/31 03:08:41;;;;;;;4.5;4.1;;;;;;;;;;;;;
2019/10/31 03:11:07;;;;;;;4.7;4.2;;;;;;;;;;;;;
2019/10/31 03:13:34;;;;;;;5;4.5;;;;;;;;;;;;;
2019/10/31 03:15:57;;;;;;;5;4.3;;;;;;;;;;;;;
2019/10/31 03:18:23;;;;;;;5.1;4.6;;;;;;;;;;;;;
2019/10/31 03:20:49;;;;;;;5.6;5;;;;;;;;;;;;;
2019/10/31 03:23:17;;;;;;;6.1;5.5;;;;;;;;;;;;;
2019/10/31 03:25:40;;;;;;;5.7;4.8;;;;;;;;;;;;;
2019/10/31 03:28:06;;;;;;;5.4;4.9;;;;;;;;;;;;;
2019/10/31 03:30:31;;;;;;;6;5.4;;;;;;;;;;;;;
2019/10/31 03:35:26;;;;;;;7;5.6;;;;;;;;;;;;;
2019/10/31 03:37:50;;;;;;;5.5;5;;;;;;;;;;;;;
2019/10/31 03:40:24;;;;;;;6.7;5.6;;;;;;;;;;;;;
2019/10/31 03:42:46;;;;;;;5.6;5.1;;;;;;;;;;;;;
2019/10/31 03:45:13;;;;;;;5.9;5.3;;;;;;;;;;;;;
2019/10/31 03:47:38;;;;;;;5.7;5.2;;;;;;;;;;;;;
2019/10/31 03:50:02;;;;;;;5.3;4.8;;;;;;;;;;;;;
2019/10/31 03:52:35;;;;;;;5.5;4.9;;;;;;;;;;;;;
2019/10/31 03:54:59;;;;;;;9;7.9;;;;;;;;;;;;;
2019/10/31 03:57:29;;;;;;;9.8;8.8;;;;;;;;;;;;;
2019/10/31 03:59:51;;;;;;;10.4;9.3;;;;;;;;;;;;;
2019/10/31 04:03:10;;;;;;;11;9.8;;;;;;;6.98;86.04785;940.9317;;;;
2019/10/31 04:05:34;;;;;;;10.9;9.8;;;;;;;7.04;86.11719;940.975;;;;
2019/10/31 04:08:05;;;;;;;11.8;10.6;;;;;;;7;86.1875;940.9268;;;;
2019/10/31 04:10:39;;;;;;;13.6;11.9;;;;;;;7.01;86.125;940.9338;;;;
2019/10/31 04:13:53;;;;;;;13.2;11.6;;;;;;;6.97;86.12598;940.887;;;;
2019/10/31 04:16:18;;;;;;;14;12.5;;;;;;;6.92;85.93555;940.8589;;;;
2019/10/31 04:18:47;;;;;;;16.2;13.5;;;;;;;6.88;86.39258;940.9442;;;;
2019/10/31 04:21:14;;;;;;;14.7;12.8;;;;;;;6.88;85.76953;940.9442;;;;
2019/10/31 04:23:44;;;;;;;15.6;13.9;;;;;;;6.75;86.78418;940.9188;;;;
2019/10/31 04:26:10;;;;;;;17.2;13.9;;;;;;;6.81;86.96484;940.9355;;;;
2019/10/31 04:28:37;;;;;;;14.7;12.8;;;;;;;6.83;87.00586;940.8914;;;;
2019/10/31 04:30:59;;;;;;;15.1;13.3;;;;;;;6.85;86.2832;940.9219;;;;
2019/10/31 04:33:53;;;;;;;15.6;13.9;;;;;;;6.88;86.50391;940.9283;;;;
2019/10/31 04:36:17;;;;;;;14;12.5;;;;;;;6.88;85.92871;940.9426;;;;
2019/10/31 04:38:43;;;;;;;14.7;13.1;;;;;;;6.74;86.39746;940.9747;;;;
2019/10/31 04:41:15;;;;;;;14.9;12.6;;;;;;;6.85;85.78516;940.9559;;;;
2019/10/31 04:43:35;;;;;;;13.6;12.2;;;;;;;6.89;85.51074;940.9547;;;;
2019/10/31 04:46:00;;;;;;;15.7;13.3;;;;;;;6.87;85.66406;940.947;;;;
2019/10/31 04:48:34;;;;;;;13.9;12.4;;;;;;;6.85;85.46777;940.9449;;;;
2019/10/31 04:51:03;;;;;;;15.7;13.3;;;;;;;6.88;85.94922;940.7952;;;;
2019/10/31 04:53:29;;;;;;;16.1;14.4;;;;;;;6.84;85.9082;940.9343;;;;
2019/10/31 04:55:57;;;;;;;15.1;13.4;;;;;;;6.89;85.38672;940.8731;;;;
2019/10/31 04:58:25;;;;;;;16.2;13.8;;;;;;;6.86;85.73047;940.8683;;;;
2019/10/31 05:00:49;;;;;;;16.5;14.3;;;;;;;6.81;85.98145;940.7878;;;;
2019/10/31 05:03:21;;;;;;;18.2;15.2;;;;;;;6.66;86.5957;940.8095;;;;
2019/10/31 05:05:51;;;;;;;16.4;14.3;;;;;;;6.72;86.6748;940.695;;;;
2019/10/31 05:08:12;;;;;;;18.2;15;;;;;;;6.73;87.06348;940.7364;;;;
2019/10/31 05:10:38;;;;;;;16.3;14.4;;;;;;;6.72;86.31445;940.7867;;;;
2019/10/31 05:13:03;;;;;;;16.8;14.6;;;;;;;6.75;86.68164;940.8073;;;;
2019/10/31 05:15:35;;;;;;;16.5;14;;;;;;;6.82;85.99512;940.8555;;;;
2019/10/31 05:18:08;;;;;;;15.7;13.6;;;;;;;6.81;85.74414;940.8038;;;;
2019/10/31 05:20:37;;;;;;;17.1;14.5;;;;;;;6.78;85.70313;940.755;;;;
2019/10/31 05:23:02;;;;;;;16.8;14.2;;;;;;;6.78;86.01953;940.6458;;;;
2019/10/31 05:25:27;;;;;;;16.5;14;;;;;;;6.74;86.4082;940.7112;;;;
2019/10/31 05:27:56;;;;;;;16.1;13.7;;;;;;;6.75;86.09375;940.8097;;;;
2019/10/31 05:30:21;;;;;;;18.7;14.4;;;;;;;6.76;85.95996;940.7965;;;;
2019/10/31 05:32:52;;;;;;;15.5;13.4;;;;;;;6.8;85.89844;940.7548;;;;
2019/10/31 05:35:18;;;;;;;15.4;12.8;;;;;;;6.78;86.15723;940.7227;;;;
2019/10/31 05:37:50;;;;;;;14.6;12.5;;;;;;;6.82;86.17383;940.7983;;;;
2019/10/31 05:40:18;;;;;;;13.7;12.2;;;;;;;6.84;86.15723;940.7991;;;;
2019/10/31 05:42:44;;;;;;;15.1;13.2;;;;;;;6.87;85.78906;940.7974;;;;
2019/10/31 05:45:12;;;;;;;15.8;13.9;;;;;;;6.65;86.28711;940.8226;;;;
2019/10/31 05:47:43;;;;;;;15.5;13.4;;;;;;;6.62;86.94922;940.8495;;;;
2019/10/31 05:50:15;;;;;;;16.3;13.4;;;;;;;6.66;87.35352;940.8065;;;;
2019/10/31 05:52:48;;;;;;;15.3;13.2;;;;;;;6.72;87.48926;940.8151;;;;
2019/10/31 05:55:22;;;;;;;13.6;12.2;;;;;;;6.67;86.5752;940.8059;;;;
2019/10/31 05:57:42;;;;;;;14.6;12.7;;;;;;;6.66;86.82227;940.8531;;;;
2019/10/31 06:00:18;;;;;;;16.9;14.3;;;;;;;6.63;87.46191;940.9124;;;;
2019/10/31 06:02:50;;;;;;;16.9;13.5;;;;;;;6.67;87.42188;940.8881;;;;
2019/10/31 06:05:11;;;;;;;14.5;12.9;;;;;;;6.75;87.16699;940.9116;;;;
2019/10/31 06:07:41;;;;;;;13.9;12.4;;;;;;;6.79;87.33496;940.8994;;;;
2019/10/31 06:10:08;;;;;;;13.8;12.1;;;;;;;6.85;87.34766;940.9449;;;;
2019/10/31 06:12:41;;;;;;;13.2;11.8;;;;;;;6.93;87.27148;940.9272;;;;
2019/10/31 06:15:06;;;;;;;13.2;11.8;;;;;;;6.94;86.99219;940.8825;;;;
2019/10/31 06:17:34;;;;;;;13.8;11.8;;;;;;;6.95;86.6748;940.9356;;;;
2019/10/31 06:20:26;;;;;;;13.7;12.2;;;;;;;6.97;86.90723;940.8793;;;;
2019/10/31 06:22:52;;;;;;;13.4;11.6;;;;;;;7.02;87.03125;940.9949;;;;
2019/10/31 06:25:23;;;;;;;13;11.4;;;;;;;7.05;87.15918;941.0106;;;;
2019/10/31 06:27:50;;;;;;;10.5;9.4;;;;;;;7.13;86.45313;941.0636;;;;
2019/10/31 06:30:22;;;;;;;11.2;10;;;;;;;7.23;86.41797;941.1094;;;;
2019/10/31 06:32:50;;;;;;;10.6;9.5;;;;;;;7.3;86.0459;941.1761;;;;
2019/10/31 06:35:15;;;;;;;12;10.7;;;;;;;7.31;85.91113;941.1216;;;;
2019/10/31 06:37:41;;;;;;;13.4;12;;;;;;;7.37;85.52734;941.1154;;;;
2019/10/31 06:40:09;;;;;;;12.9;11;;;;;;;7.4;85.44238;941.2174;;;;
2019/10/31 06:42:34;;;;;;;14.4;12.1;;;;;;;7.39;85.35156;941.3061;;;;
2019/10/31 06:45:50;;;;;;;15.8;13.1;;;;;;;7.36;85.14941;941.309;;;;
2019/10/31 06:48:21;;;;;;;13.8;12.2;;;;;;;7.3;85.16113;941.3567;;;;
2019/10/31 06:50:54;;;;;;;14.5;12.8;;;;;;;7.18;85.83887;941.2953;;;;
2019/10/31 06:53:23;;;;;;;13;11.6;;;;;;;7.09;85.34668;941.3215;;;;
2019/10/31 06:55:57;;;;;;;13.5;12.1;;;;;;;7.06;85.95313;941.3635;;;;
2019/10/31 06:58:26;;;;;;;13.9;12.4;;;;;;;7.04;85.8457;941.3209;;;;
2019/10/31 07:00:52;;;;;;;14.8;12.6;;;;;;;7.11;85.71484;941.3839;;;;
2019/10/31 07:03:19;;;;;;;13.2;11.7;;;;;;;7.18;85.37598;941.3605;;;;
2019/10/31 07:05:51;;;;;;;11.7;10.5;;;;;;;7.24;84.93555;941.3758;;;;
2019/10/31 07:08:21;;;;;;;12.9;11.3;;;;;;;7.28;84.52148;941.4131;;;;
2019/10/31 07:10:43;;;;;;;13.5;11.5;;;;;;;7.26;84.68945;941.3287;;;;
2019/10/31 07:13:08;;;;;;;12.2;10.9;;;;;;;7.32;84.59863;941.3635;;;;
2019/10/31 07:15:33;;;;;;;12.4;10.7;;;;;;;7.22;85.23633;941.372;;;;
2019/10/31 07:18:02;;;;;;;12.2;10.6;;;;;;;7.15;85.1084;941.3809;;;;
2019/10/31 07:20:25;;;;;;;11.4;9.8;;;;;;;7.27;84.44238;941.3813;;;;
2019/10/31 07:22:50;;;;;;;13.1;10.4;;;;;;;7.32;85.0293;941.4339;;;;
2019/10/31 07:25:19;;;;;;;11.8;9.5;;;;;;;7.31;84.82324;941.4227;;;;
2019/10/31 07:27:44;;;;;;;11.8;10;;;;;;;7.44;84.87109;941.454;;;;
2019/10/31 07:30:09;;;;;;;10.3;9.2;;;;;;;7.48;84.75488;941.4497;;;;
2019/10/31 07:32:38;;;;;;;10.9;9.2;;;;;;;7.5;83.65918;941.4896;;;;
2019/10/31 07:35:01;;;;;;;10.9;9.6;;;;;;;7.54;83.34863;941.5065;;;;
2019/10/31 07:37:28;;;;;;;11.4;10.1;;;;;;;7.55;83.52246;941.4568;;;;
2019/10/31 07:39:58;;;;;;;12.4;10.9;;;;;;;7.53;82.83691;941.4113;;;;
2019/10/31 07:42:24;;;;;;;12.2;10.2;;;;;;;7.59;83.94922;941.4278;;;;
2019/10/31 07:44:53;;;;;;;10.6;9.3;;;;;;;7.61;82.72949;941.3654;;;;
2019/10/31 07:47:19;;;;;;;8.7;7.8;;;;;;;7.66;82.44141;941.3585;;;;
2019/10/31 07:49:46;;;;;;;8.4;7.5;;;;;;;7.69;82.48047;941.3846;;;;
2019/10/31 07:52:11;;;;;;;9.2;7.6;;;;;;;7.65;83.04102;941.4121;;;;
2019/10/31 07:54:35;;;;;;;9.1;8.1;;;;;;;7.68;83.07031;941.4178;;;;
2019/10/31 07:57:01;;;;;;;9.8;8.8;;;;;;;7.69;82.73145;941.3713;;;;
2019/10/31 07:59:28;;;;;;;9.9;8.9;;;;;;;7.78;83.06738;941.3688;;;;
2019/10/31 08:01:54;;;;;;;8.8;7.9;;;;;;;7.88;82.88184;941.3215;;;;
2019/10/31 08:04:21;;;;;;;8.6;7.7;;;;;;;8;82.95215;941.3475;;;;
2019/10/31 08:06:49;;;;;;;8.3;7.4;;;;;;;8.11;82.36914;941.4327;;;;
2019/10/31 08:11:58;;;;;;;6.9;6.2;;;;;;;8.15;81.19727;941.4662;;;;
2019/10/31 08:14:25;;;;;;;8.8;7.5;;;;;;;8.11;81.20117;941.4351;;;;
2019/10/31 08:17:07;;;;;;;9.1;8.2;;;;;;;8.06;80.91895;941.3563;;;;
2019/10/31 08:19:37;;;;;;;11.3;10.1;;;;;;;8.06;81.52051;941.3801;;;;
2019/10/31 08:22:03;;;;;;;10.1;8.8;;;;;;;8.06;80.46484;941.3753;;;;
2019/10/31 08:24:32;;;;;;;10;9;;;;;;;7.97;80.65234;941.3823;;;;
2019/10/31 08:26:59;;;;;;;10.5;9.4;;;;;;;8;81.45313;941.372;;;;
2019/10/31 08:29:27;;;;;;;10.5;9.4;;;;;;;8.09;80.67383;941.3251;;;;
2019/10/31 08:31:52;;;;;;;11.4;9.9;;;;;;;8.06;80.8623;941.426;;;;
2019/10/31 08:34:21;;;;;;;12.5;10.8;;;;;;;8.12;81.41895;941.3505;;;;
2019/10/31 08:36:45;;;;;;;12.2;10.6;;;;;;;8.17;80.66699;941.3136;;;;
2019/10/31 08:39:12;;;;;;;11.5;10.3;;;;;;;8.32;80.88867;941.3245;;;;
2019/10/31 08:41:41;;;;;;;10.2;9.2;;;;;;;8.48;79.31641;941.3161;;;;
2019/10/31 08:44:05;;;;;;;10.2;8.8;;;;;;;8.58;78.80078;941.2515;;;;
2019/10/31 08:46:33;;;;;;;10.6;9.5;;;;;;;8.61;79.88379;941.2774;;;;
2019/10/31 08:49:01;;;;;;;13.2;11.5;;;;;;;8.66;79.55273;941.1542;;;;
2019/10/31 08:51:25;;;;;;;11.7;10.5;;;;;;;8.71;78.2666;941.2656;;;;
2019/10/31 08:53:57;;;;;;;11;9.8;;;;;;;8.71;77.86719;941.2679;;;;
2019/10/31 08:56:26;;;;;;;12;10.8;;;;;;;8.63;78.93262;941.2274;;;;
2019/10/31 08:58:50;;;;;;;12.5;10.8;;;;;;;8.62;78.68262;941.2145;;;;
2019/10/31 09:01:17;;;;;;;11.5;10.3;;;;;;;8.75;79.43359;941.1989;;;;
2019/10/31 09:03:55;;;;;;;9.8;8.8;;;;;;;8.83;78.32227;941.1661;;;;
2019/10/31 09:06:22;;;;;;;10.2;9.2;;;;;;;8.94;79.36719;941.0944;;;;
2019/10/31 09:08:48;;;;;;;9.5;8.4;;;;;;;9.34;78.3252;941.09;;;;
2019/10/31 09:11:22;;;;;;;9.9;8.9;;;;;;;9.23;76.56348;941.1125;;;;
2019/10/31 09:13:47;;;;;;;8.7;7.9;;;;;;;9.23;78.58984;941.0815;;;;
2019/10/31 09:16:10;;;;;;;8;7.2;;;;;;;9.12;78.47754;941.0759;;;;
2019/10/31 09:18:35;;;;;;;7.6;6.8;;;;;;;9.19;77.70508;941.1322;;;;
2019/10/31 09:21:06;;;;;;;7.6;6.8;;;;;;;9.4;79.39355;941.0592;;;;
2019/10/31 09:23:32;;;;;;;7.4;6.6;;;;;;;9.65;77.87891;941.0173;;;;
2019/10/31 09:26:00;;;;;;;8.7;7.3;;;;;;;10.04;78.13379;940.975;;;;
2019/10/31 09:28:55;;;;;;;28.6;24.1;;;;;;;10.06;76.66504;940.9849;;;;
2019/10/31 09:31:22;;;;;;;8.4;6.4;;;;;;;10.12;75.14648;941.0835;;;;
2019/10/31 09:33:58;;;;;;;7.3;6.4;;;;;;;10.17;75.71387;941.07;;;;
2019/10/31 09:36:24;;;;;;;6.7;6;;;;;;;9.98;76.01074;941.0898;;;;
2019/10/31 09:38:58;;;;;;;6.8;6.1;;;;;;;9.99;75.81836;941.1043;;;;
2019/10/31 09:41:31;;;;;;;7;6.3;;;;;;;9.87;76.23242;941.0508;;;;
2019/10/31 09:43:52;;;;;;;7;6;;;;;;;9.87;75.99316;941.0078;;;;
2019/10/31 09:46:18;;;;;;;6.4;5.7;;;;;;;10.04;76.64941;940.9637;;;;
2019/10/31 09:48:47;;;;;;;6.5;5.5;;;;;;;10.3;73.91309;940.9779;;;;
2019/10/31 09:51:11;;;;;;;5.8;5.1;;;;;;;10.46;74.21191;940.9955;;;;
2019/10/31 09:53:50;;;;;;;7.3;6.6;;;;;;;10.47;74.41016;941.0413;;;;
2019/10/31 09:56:08;;;;;;;8.3;6.7;;;;;;;10.54;75.09473;941.0079;;;;
2019/10/31 09:58:41;;;;;;;7.8;6.5;;;;;;;10.6;74.53516;940.992;;;;
2019/10/31 10:01:05;;;;;;;7.6;6.8;;;;;;;10.64;74.25391;940.9155;;;;
2019/10/31 10:03:32;;;;;;;8.1;6.6;;;;;;;10.75;74.1123;940.8245;;;;
2019/10/31 10:05:58;;;;;;;7.5;6.5;;;;;;;10.81;74.25098;940.8759;;;;
2019/10/31 10:08:23;;;;;;;8;6.2;;;;;;;10.73;74.70508;940.8951;;;;
2019/10/31 10:10:50;;;;;;;7.6;5.9;;;;;;;10.9;74.15039;940.865;;;;
2019/10/31 10:13:16;;;;;;;6.2;5.4;;;;;;;10.94;73.02637;940.7397;;;;
2019/10/31 10:15:48;;;;;;;6.3;5.6;;;;;;;10.89;74.17188;940.8832;;;;
2019/10/31 10:18:10;;;;;;;6.7;5.5;;;;;;;11.18;72.97461;940.8638;;;;
2019/10/31 10:20:35;;;;;;;7.2;5.6;;;;;;;11.36;71.16309;940.8149;;;;
2019/10/31 10:22:59;;;;;;;6.4;5.7;;;;;;;11.42;72.13672;940.8566;;;;
2019/10/31 10:25:28;;;;;;;5.9;5.3;;;;;;;11.46;71.95898;940.8666;;;;
2019/10/31 10:27:55;;;;;;;5.8;5.2;;;;;;;11.55;70.92188;940.877;;;;
2019/10/31 10:30:18;;;;;;;6.4;5.5;;;;;;;11.82;71.11328;940.9106;;;;
2019/10/31 10:32:45;;;;;;;6.3;5.7;;;;;;;11.71;71.32617;940.8741;;;;
2019/10/31 10:35:10;;;;;;;9.2;6.2;;;;;;;11.96;72.91211;940.9191;;;;
2019/10/31 10:37:40;;;;;;;10.5;8.8;;;;;;;11.57;71.83008;940.9434;;;;
2019/10/31 10:40:04;;;;;;;11;9.5;;;;;;;11.2;71.97266;940.8736;;;;
2019/10/31 10:42:31;;;;;;;11.9;9.9;;;;;;;11.08;72.15918;940.8961;;;;
2019/10/31 10:44:59;;;;;;;10.2;8.6;;;;;;;11.05;73.22754;940.8639;;;;
2019/10/31 10:47:23;;;;;;;9.7;7.9;;;;;;;11.1;73.14551;940.8358;;;;
2019/10/31 10:49:48;;;;;;;7.4;6.5;;;;;;;11;71.78027;940.7992;;;;
2019/10/31 10:52:14;;;;;;;8.3;6.7;;;;;;;10.95;73.62207;940.8409;;;;
2019/10/31 10:54:45;;;;;;;9.1;7;;;;;;;10.92;72.82813;940.827;;;;
2019/10/31 10:57:18;;;;;;;8.9;7.8;;;;;;;10.8;73.39063;940.779;;;;
2019/10/31 10:59:44;;;;;;;9;8;;;;;;;10.72;72.56641;940.7326;;;;
2019/10/31 11:02:12;;;;;;;10.4;8.6;;;;;;;10.49;75.71484;940.6769;;;;
2019/10/31 11:04:35;;;;;;;10.5;8.9;;;;;;;10.55;74.5127;940.6536;;;;
2019/10/31 11:07:14;;;;;;;11.6;9.6;;;;;;;10.66;74.88672;940.6267;;;;
2019/10/31 11:09:37;;;;;;;13.1;10.9;;;;;;;10.49;76.83203;940.6019;;;;
2019/10/31 11:12:08;;;;;;;13.6;10.8;;;;;;;10.79;76.17676;940.6092;;;;
2019/10/31 11:14:42;;;;;;;14.4;11.3;;;;;;;10.87;75.47168;940.6415;;;;
2019/10/31 11:17:12;;;;;;;15;12.3;;;;;;;10.99;74.29297;940.5815;;;;
2019/10/31 11:19:40;;;;;;;15.2;12.4;;;;;;;10.75;75.13281;940.5195;;;;
2019/10/31 11:22:04;;;;;;;16.9;12.2;;;;;;;10.79;76.19922;940.5527;;;;
2019/10/31 11:24:33;;;;;;;13.3;10.7;;;;;;;12.28;71.37207;940.5212;;;;
2019/10/31 11:26:56;;;;;;;11.5;9.9;;;;;;;14.33;64.63672;940.4615;;;;
2019/10/31 11:29:39;;;;;;;11.2;10;;;;;;;14.78;60.83008;940.4589;;;;
2019/10/31 11:31:54;;;;;;;12;10.3;;;;;;;13.89;62.82422;940.3667;;;;
2019/10/31 11:34:19;;;;;;;12.6;10.8;;;;;;;12.88;66.14355;940.4485;;;;
2019/10/31 11:36:46;;;;;;;12.9;10.9;;;;;;;12.32;67.84863;940.3937;;;;
2019/10/31 11:39:15;;;;;;;12.6;10.6;;;;;;;12.02;69.11816;940.3947;;;;
2019/10/31 11:41:43;;;;;;;15.3;11.6;;;;;;;11.59;71.28418;940.4426;;;;
2019/10/31 11:44:08;;;;;;;12.6;11.1;;;;;;;11.44;71.5332;940.3695;;;;
2019/10/31 11:46:32;;;;;;;13.4;11.3;;;;;;;11.03;73.61328;940.3664;;;;
2019/10/31 11:49:03;;;;;;;14;11.3;;;;;;;11.18;73.37695;940.3369;;;;
2019/10/31 11:51:29;;;;;;;12;10.3;;;;;;;11.48;72.95605;940.3069;;;;
2019/10/31 11:53:58;;;;;;;11.8;10.3;;;;;;;11.75;70.9082;940.2944;;;;
2019/10/31 11:56:26;;;;;;;13.3;10.5;;;;;;;11.57;72.12793;940.3069;;;;
2019/10/31 11:58:52;;;;;;;12;9.2;;;;;;;11.76;70.66895;940.3072;;;;
2019/10/31 12:01:18;;;;;;;10.6;9.5;;;;;;;11.59;71.83301;940.2082;;;;
2019/10/31 12:03:45;;;;;;;11.6;9.1;;;;;;;12.02;70.89355;940.2095;;;;
2019/10/31 12:06:10;;;;;;;11.2;9.4;;;;;;;12.19;69.72949;940.1978;;;;
2019/10/31 12:08:40;;;;;;;11.5;9.2;;;;;;;12.43;70.19336;940.2142;;;;
2019/10/31 12:11:04;;;;;;;10.9;8.7;;;;;;;13.37;66.40332;940.159;;;;
2019/10/31 12:13:29;;;;;;;10.4;8.6;;;;;;;13.05;67.00977;940.1097;;;;
2019/10/31 12:15:56;;;;;;;9.6;8.6;;;;;;;12.69;67.94043;940.1214;;;;
2019/10/31 12:18:21;;;;;;;10.6;9.1;;;;;;;12.71;67.41602;940.0895;;;;
2019/10/31 12:20:44;;;;;;;11.6;9.3;;;;;;;12.37;68.14258;940.0834;;;;
2019/10/31 12:23:15;;;;;;;12.2;9.8;;;;;;;12.24;69.78418;940.0779;;;;
2019/10/31 12:25:51;;;;;;;10.7;9.3;;;;;;;12.12;69.92578;940.033;;;;
2019/10/31 12:28:15;;;;;;;11.1;9.3;;;;;;;12.23;70.33301;939.9637;;;;
2019/10/31 12:30:56;;;;;;;9.9;8.9;;;;;;;12.45;69.53125;939.9252;;;;
2019/10/31 12:33:24;;;;;;;11.8;9.4;;;;;;;12.34;70.27051;939.9211;;;;
2019/10/31 12:35:50;;;;;;;12;9.8;;;;;;;12.24;70.27734;939.9199;;;;
2019/10/31 12:38:16;;;;;;;11.2;9.7;;;;;;;12.05;70.7168;939.9719;;;;
2019/10/31 12:40:40;;;;;;;11.5;10.2;;;;;;;11.66;72.16309;939.9977;;;;
2019/10/31 12:43:12;;;;;;;10.7;9.4;;;;;;;11.7;71.53027;939.9391;;;;
2019/10/31 12:45:53;;;;;;;11.4;9.4;;;;;;;11.75;72.62598;939.9977;;;;
2019/10/31 12:48:13;;;;;;;13;9.7;;;;;;;11.56;72.75293;939.9727;;;;
2019/10/31 12:50:39;;;;;;;11.2;9.2;;;;;;;11.46;73.79004;939.9766;;;;
2019/10/31 12:53:07;;;;;;;9.9;8.5;;;;;;;11.32;73.86816;939.9973;;;;
2019/10/31 12:55:36;;;;;;;9.7;8.7;;;;;;;11.34;73.49414;940.0247;;;;
2019/10/31 12:58:56;;;;;;;10.8;8.8;;;;;;;11.14;73.94238;939.997;;;;
2019/10/31 13:01:22;;;;;;;10.6;8.7;;;;;;;11.07;73.6543;939.9906;;;;
2019/10/31 13:04:03;;;;;;;10.4;8.9;;;;;;;10.83;75.75098;939.9783;;;;
2019/10/31 13:06:35;;;;;;;13.6;9.7;;;;;;;10.84;75.375;939.9258;;;;
2019/10/31 13:09:10;;;;;;;14.2;11.2;;;;;;;10.38;77.0752;939.93;;;;
2019/10/31 13:11:34;;;;;;;14.1;12;;;;;;;10.35;77.53809;939.8809;;;;
2019/10/31 13:14:10;;;;;;;15.1;12.3;;;;;;;10.26;78.49219;939.9506;;;;
2019/10/31 13:16:37;;;;;;;16.3;13.1;;;;;;;10.09;78.22168;939.9048;;;;
2019/10/31 13:19:09;;;;;;;18;14.3;;;;;;;10.18;77.64258;939.9108;;;;
2019/10/31 13:21:51;;;;;;;19.1;14.8;;;;;;;10.1;78.05176;939.9464;;;;
2019/10/31 13:24:07;;;;;;;20.9;16.5;;;;;;;9.86;78.93262;939.9403;;;;
2019/10/31 13:26:38;;;;;;;22.4;17.9;;;;;;;9.81;79.03711;939.9846;;;;
2019/10/31 13:29:00;;;;;;;23;18.5;;;;;;;9.51;80.31348;939.9501;;;;
2019/10/31 13:31:38;;;;;;;25.5;19.6;;;;;;;9.59;79.9541;939.9444;;;;
2019/10/31 13:34:07;;;;;;;24.7;19.6;;;;;;;9.64;79.55273;939.9334;;;;
2019/10/31 13:36:31;;;;;;;26.8;20.6;;;;;;;9.75;79.49414;940.0115;;;;
2019/10/31 13:39:00;;;;;;;28.1;21.1;;;;;;;9.5;80.47266;939.9875;;;;
2019/10/31 13:43:56;;;;;;;27.9;20.8;;;;;;;9.42;80.15039;939.9855;;;;
2019/10/31 13:46:30;;;;;;;27.5;20.7;;;;;;;9.42;80.96875;940.0036;;;;
2019/10/31 13:48:59;;;;;;;25.3;19.5;;;;;;;9.47;80.32813;939.9734;;;;
2019/10/31 13:51:27;;;;;;;26.3;19.8;;;;;;;9.29;80.81934;940.0273;;;;
2019/10/31 13:54:00;;;;;;;27.1;20.9;;;;;;;9.22;80.97852;939.9587;;;;
2019/10/31 13:56:58;;;;;;;26.7;20.3;;;;;;;9.31;80.50586;939.972;;;;
2019/10/31 14:02:12;;;;;;;26.1;20.5;;;;;;;9.4;80.92188;939.9648;;;;
2019/10/31 14:04:33;;;;;;;25.5;19.6;;;;;;;9.55;79.66113;939.9659;;;;
2019/10/31 14:07:01;;;;;;;25;19.7;;;;;;;9.42;80.31934;939.9774;;;;
2019/10/31 14:09:31;;;;;;;26;20;;;;;;;9.35;80.91113;939.9425;;;;
2019/10/31 14:12:01;;;;;;;27.5;20.4;;;;;;;9.53;80.00977;939.9091;;;;
2019/10/31 14:14:33;;;;;;;28.2;20.9;;;;;;;9.47;80.63574;939.8828;;;;
2019/10/31 14:16:52;;;;;;;25.9;20;;;;;;;9.21;81.10059;939.8942;;;;
2019/10/31 14:19:21;;;;;;;27.4;20.8;;;;;;;9.35;81.11621;939.817;;;;
2019/10/31 14:21:53;;;;;;;25.5;19.6;;;;;;;9.27;80.96582;939.8531;;;;
2019/10/31 14:24:30;;;;;;;25.9;20.3;;;;;;;9.09;81.96777;939.8871;;;;
2019/10/31 14:26:51;;;;;;;26.5;19.4;;;;;;;9.16;82.53711;939.8985;;;;
2019/10/31 14:29:15;;;;;;;27.5;20.7;;;;;;;9.13;82.78223;939.902;;;;
2019/10/31 14:32:03;;;;;;;27.6;20.2;;;;;;;9.23;82.41504;939.9207;;;;
2019/10/31 14:34:35;;;;;;;26.3;19.2;;;;;;;9.26;81.64551;939.8457;;;;
2019/10/31 14:37:00;;;;;;;29.5;21.4;;;;;;;9.2;81.62207;939.8459;;;;
2019/10/31 14:39:25;;;;;;;29.7;21.3;;;;;;;9.05;82.67383;939.9141;;;;
2019/10/31 14:41:58;;;;;;;28.1;20.8;;;;;;;9.19;82.24707;939.9133;;;;
2019/10/31 14:44:30;;;;;;;28.1;20.9;;;;;;;9.1;82.45703;939.9102;;;;
2019/10/31 14:46:55;;;;;;;26.3;20.1;;;;;;;9.15;81.93262;939.9191;;;;
2019/10/31 14:49:28;;;;;;;26.7;20.5;;;;;;;9.05;82.49414;939.9022;;;;
2019/10/31 14:51:54;;;;;;;30.3;21.3;;;;;;;9.12;82.87012;939.8812;;;;
2019/10/31 14:54:23;;;;;;;29.8;21.2;;;;;;;9.05;82.91504;939.9451;;;;
2019/10/31 14:56:49;;;;;;;27.9;20.6;;;;;;;;;;;;;
2019/10/31 14:59:13;;;;;;;28.7;21.3;;;;;;;;;;;;;
2019/10/31 15:01:39;;;;;;;30;21.5;;;;;;;;;;;;;
2019/10/31 15:04:05;;;;;;;29;21.4;;;;;;;;;;;;;
2019/10/31 15:06:53;;;;;;;29.5;21.5;;;;;;;;;;;;;
2019/10/31 15:08:56;;;;;;;28.4;20.5;;;;;;;;;;;;;
2019/10/31 15:11:21;;;;;;;29.5;20.1;;;;;;;;;;;;;
2019/10/31 15:13:55;;;;;;;28.5;20.8;;;;;;;;;;;;;
2019/10/31 15:16:18;;;;;;;30.1;21.5;;;;;;;;;;;;;
2019/10/31 15:21:18;;;;;;;29.4;20.9;;;;;;;;;;;;;
2019/10/31 15:23:56;;;;;;;29.4;20.5;;;;;;;;;;;;;
2019/10/31 15:26:10;;;;;;;27.8;20.2;;;;;;;;;;;;;
2019/10/31 15:28:36;;;;;;;24.8;18.4;;;;;;;;;;;;;
2019/10/31 15:31:01;;;;;;;28.1;19.9;;;;;;;;;;;;;
2019/10/31 15:33:27;;;;;;;27.1;19.1;;;;;;;;;;;;;
2019/10/31 15:35:57;;;;;;;30.8;19.6;;;;;;;;;;;;;
2019/10/31 15:38:19;;;;;;;27.8;19.6;;;;;;;;;;;;;
2019/10/31 15:40:43;;;;;;;27.9;19.6;;;;;;;;;;;;;
2019/10/31 15:43:08;;;;;;;28.2;19.3;;;;;;;;;;;;;
2019/10/31 15:45:35;;;;;;;28.3;19.5;;;;;;;;;;;;;
2019/10/31 15:48:03;;;;;;;28.3;20.3;;;;;;;;;;;;;
2019/10/31 15:50:24;;;;;;;26.7;19.3;;;;;;;;;;;;;
2019/10/31 15:52:53;;;;;;;30.9;19.4;;;;;;;;;;;;;
2019/10/31 15:55:19;;;;;;;27.4;19.2;;;;;;;;;;;;;
2019/10/31 15:57:46;;;;;;;26.5;19.2;;;;;;;;;;;;;
2019/10/31 16:00:12;;;;;;;26.9;19.7;;;;;;;;;;;;;
2019/10/31 16:02:36;;;;;;;29.5;20.4;;;;;;;;;;;;;
2019/10/31 16:05:09;;;;;;;31;20.3;;;;;;;;;;;;;
2019/10/31 16:07:32;;;;;;;28.1;19.9;;;;;;;;;;;;;
2019/10/31 16:09:58;;;;;;;27.5;19.3;;;;;;;;;;;;;